Time;durP1;ratioP1;P1;durP2;ratioP2;P2;SDS_P1;SDS_P2;PMS_P1;PMS_P2;Temp;Humidity;BMP_temperature;BMP_pressure;BME280_temperature;BME280_humidity;BME280_pressure;Samples;Min_cycle;Max_cycle;Signal;HPM_P1;HPM_P2
2023/10/05 00:04:29;;;;;;;10.13;3.87;;;8.00;99.90;;;;;;5002784;28;20570;-69
2023/10/05 00:06:56;;;;;;;10.00;3.93;;;8.00;99.90;;;;;;5011271;28;20181;-69
2023/10/05 00:09:24;;;;;;;8.77;3.53;;;8.00;99.90;;;;;;5010356;28;20668;-70
2023/10/05 00:11:56;;;;;;;9.20;3.70;;;7.90;99.90;;;;;;5003036;28;20180;-69
2023/10/05 00:14:24;;;;;;;11.70;4.73;;;7.90;99.90;;;;;;5008269;28;20212;-70
2023/10/05 00:16:49;;;;;;;9.50;3.63;;;7.90;99.90;;;;;;5005729;28;20193;-69
2023/10/05 00:19:17;;;;;;;10.23;3.97;;;7.90;99.90;;;;;;5000492;28;20220;-70
2023/10/05 00:21:50;;;;;;;9.40;4.13;;;7.90;99.90;;;;;;5004757;28;20535;-70
2023/10/05 00:24:34;;;;;;;11.07;4.33;;;7.90;99.90;;;;;;5000904;28;20196;-69
2023/10/05 00:27:00;;;;;;;9.77;4.20;;;7.90;99.90;;;;;;5006047;28;20187;-69
2023/10/05 00:29:35;;;;;;;9.57;4.00;;;7.90;99.90;;;;;;5009887;28;20287;-68
2023/10/05 00:32:01;;;;;;;10.87;4.30;;;7.90;99.90;;;;;;5002754;28;20182;-68
2023/10/05 00:34:35;;;;;;;9.40;4.33;;;7.80;99.90;;;;;;5002513;28;20204;-68
2023/10/05 00:37:01;;;;;;;13.07;4.37;;;7.90;99.90;;;;;;5002562;28;20714;-70
2023/10/05 00:39:29;;;;;;;9.67;4.33;;;7.90;99.90;;;;;;5006745;28;20221;-70
2023/10/05 00:44:30;;;;;;;9.80;4.00;;;7.80;99.90;;;;;;5010796;28;20207;-69
2023/10/05 00:47:00;;;;;;;9.63;3.80;;;7.90;99.90;;;;;;5002451;28;20663;-69
2023/10/05 00:49:30;;;;;;;9.50;3.83;;;7.80;99.90;;;;;;5009654;28;20207;-69
2023/10/05 00:52:12;;;;;;;9.73;4.00;;;7.80;99.90;;;;;;5002477;28;20210;-69
2023/10/05 00:54:40;;;;;;;7.83;3.80;;;7.80;99.90;;;;;;4996633;28;20223;-69
2023/10/05 00:57:09;;;;;;;9.10;4.00;;;7.80;99.90;;;;;;5010069;28;20187;-70
2023/10/05 00:59:36;;;;;;;8.17;3.20;;;7.80;99.90;;;;;;5002443;28;20313;-69
2023/10/05 01:04:35;;;;;;;11.40;4.07;;;7.70;99.90;;;;;;4992950;28;20216;-70
2023/10/05 01:07:26;;;;;;;8.00;3.60;;;7.80;99.90;;;;;;5010424;28;20664;-70
2023/10/05 01:14:54;;;;;;;7.47;3.73;;;7.80;99.90;;;;;;5010609;28;20644;-69
2023/10/05 01:17:21;;;;;;;9.10;3.57;;;7.90;99.90;;;;;;5001815;28;20180;-70
2023/10/05 01:19:58;;;;;;;7.23;3.23;;;7.90;99.90;;;;;;5001622;28;20728;-68
2023/10/05 01:22:34;;;;;;;8.37;3.30;;;8.00;99.90;;;;;;4985768;28;20178;-69
2023/10/05 01:25:02;;;;;;;5.77;3.20;;;8.00;99.90;;;;;;4994915;28;20235;-68
2023/10/05 01:27:29;;;;;;;7.67;3.27;;;8.00;99.90;;;;;;5009727;28;20231;-69
2023/10/05 01:29:56;;;;;;;8.73;3.63;;;8.10;99.90;;;;;;5002879;28;20238;-68
2023/10/05 01:32:22;;;;;;;8.20;3.40;;;8.10;99.90;;;;;;5008803;28;20569;-68
2023/10/05 01:34:50;;;;;;;8.00;3.40;;;8.20;99.90;;;;;;5004359;28;20280;-68
2023/10/05 01:37:23;;;;;;;8.23;3.30;;;8.20;99.90;;;;;;5009644;28;20291;-68
2023/10/05 01:39:49;;;;;;;10.20;3.33;;;8.20;99.90;;;;;;5005244;28;20212;-68
2023/10/05 01:42:16;;;;;;;7.77;3.30;;;8.30;99.90;;;;;;5004541;28;20598;-68
2023/10/05 01:44:47;;;;;;;7.93;3.40;;;8.30;99.90;;;;;;5007522;28;20643;-68
2023/10/05 01:47:16;;;;;;;6.83;3.33;;;8.40;99.90;;;;;;5005404;28;20288;-69
2023/10/05 01:49:46;;;;;;;5.83;3.20;;;8.40;99.90;;;;;;4998521;28;20193;-71
2023/10/05 01:52:17;;;;;;;8.63;3.57;;;8.40;99.90;;;;;;5002114;28;20201;-70
2023/10/05 01:54:44;;;;;;;8.10;3.60;;;8.50;99.90;;;;;;4986102;28;20185;-69
2023/10/05 01:57:12;;;;;;;8.10;3.30;;;8.50;99.90;;;;;;4992568;28;20182;-70
2023/10/05 01:59:39;;;;;;;7.20;3.33;;;8.50;99.90;;;;;;5020596;28;20634;-72
2023/10/05 02:02:10;;;;;;;5.77;3.13;;;8.50;99.90;;;;;;5004157;28;20666;-73
2023/10/05 02:04:43;;;;;;;7.70;3.63;;;8.50;99.90;;;;;;5006133;28;20687;-72
2023/10/05 02:07:10;;;;;;;8.37;3.27;;;8.50;99.90;;;;;;5013311;28;20675;-72
2023/10/05 02:09:38;;;;;;;7.00;3.20;;;8.50;99.90;;;;;;5012853;28;20263;-70
2023/10/05 02:12:06;;;;;;;7.57;3.27;;;8.50;99.90;;;;;;5012233;28;20314;-71
2023/10/05 02:14:41;;;;;;;10.63;3.87;;;8.50;99.90;;;;;;4989596;28;20200;-72
2023/10/05 02:17:13;;;;;;;7.53;3.17;;;8.50;99.90;;;;;;5013191;28;20795;-72
2023/10/05 02:19:41;;;;;;;7.67;3.60;;;8.60;99.90;;;;;;4997691;28;20181;-70
2023/10/05 02:22:11;;;;;;;8.70;3.40;;;8.50;99.90;;;;;;4997359;28;20181;-71
2023/10/05 02:24:40;;;;;;;8.63;3.87;;;8.60;99.90;;;;;;5013227;28;20583;-71
2023/10/05 02:27:11;;;;;;;7.00;3.33;;;8.60;99.90;;;;;;4996707;28;20223;-71
2023/10/05 02:29:40;;;;;;;10.73;3.43;;;8.60;99.90;;;;;;5015669;28;20181;-72
2023/10/05 02:32:10;;;;;;;7.40;3.70;;;8.60;99.90;;;;;;4993466;28;20204;-71
2023/10/05 02:34:44;;;;;;;8.37;3.30;;;8.70;99.90;;;;;;4998209;28;20227;-71
2023/10/05 02:37:12;;;;;;;8.43;3.43;;;8.70;99.90;;;;;;5004005;28;20187;-72
2023/10/05 02:39:38;;;;;;;8.67;3.40;;;8.70;99.90;;;;;;4996640;28;20208;-70
2023/10/05 02:42:12;;;;;;;10.13;3.67;;;8.70;99.90;;;;;;5011322;28;20644;-72
2023/10/05 02:44:38;;;;;;;6.87;3.37;;;8.70;99.90;;;;;;5011393;28;20224;-71
2023/10/05 02:47:08;;;;;;;6.87;3.43;;;8.70;99.90;;;;;;4996804;28;20240;-71
2023/10/05 02:49:39;;;;;;;10.30;3.57;;;8.70;99.90;;;;;;4991762;28;20185;-72
2023/10/05 02:52:10;;;;;;;9.70;3.27;;;8.70;99.90;;;;;;5009053;28;20192;-72
2023/10/05 02:54:36;;;;;;;7.57;3.33;;;8.60;99.90;;;;;;5000463;28;20201;-72
2023/10/05 02:57:03;;;;;;;6.17;2.83;;;8.60;99.90;;;;;;5001066;28;20224;-72
2023/10/05 02:59:29;;;;;;;7.53;3.20;;;8.60;99.90;;;;;;5011163;28;20262;-71
2023/10/05 03:02:00;;;;;;;10.87;3.20;;;8.60;99.90;;;;;;5012373;28;20184;-72
2023/10/05 03:04:44;;;;;;;10.73;3.40;;;8.60;99.90;;;;;;5001342;28;20228;-71
2023/10/05 03:07:10;;;;;;;10.47;3.73;;;8.60;99.90;;;;;;5008286;28;20191;-72
2023/10/05 03:09:35;;;;;;;6.70;3.37;;;8.50;99.90;;;;;;5011578;28;20184;-72
2023/10/05 03:12:01;;;;;;;13.50;3.30;;;8.50;99.90;;;;;;5012417;28;20224;-72
2023/10/05 03:14:27;;;;;;;9.73;3.37;;;8.60;99.90;;;;;;5000020;28;20209;-72
2023/10/05 03:16:56;;;;;;;7.50;3.50;;;8.50;99.90;;;;;;5022104;28;20188;-71
2023/10/05 03:19:22;;;;;;;10.17;3.37;;;8.50;99.90;;;;;;5002868;28;20205;-71
2023/10/05 03:21:50;;;;;;;9.93;3.67;;;8.50;99.90;;;;;;5012104;28;20211;-72
2023/10/05 03:24:17;;;;;;;9.50;3.33;;;8.50;99.90;;;;;;5001133;28;20208;-72
2023/10/05 03:26:43;;;;;;;7.90;3.77;;;8.50;99.90;;;;;;4995732;28;20986;-71
2023/10/05 03:29:11;;;;;;;7.73;3.57;;;8.50;99.90;;;;;;4996757;28;20188;-71
2023/10/05 03:31:43;;;;;;;7.17;3.40;;;8.50;99.90;;;;;;5026020;28;20227;-72
2023/10/05 03:34:10;;;;;;;10.57;3.57;;;8.50;99.90;;;;;;4995447;28;20739;-71
2023/10/05 03:36:36;;;;;;;7.37;3.30;;;8.50;99.90;;;;;;5003654;28;20176;-70
2023/10/05 03:39:06;;;;;;;10.40;3.40;;;8.50;99.90;;;;;;5002910;28;20232;-72
2023/10/05 03:41:32;;;;;;;11.53;3.73;;;8.50;99.90;;;;;;4987585;28;20181;-70
2023/10/05 03:44:07;;;;;;;12.33;3.63;;;8.50;99.90;;;;;;5004734;28;20293;-70
2023/10/05 03:46:34;;;;;;;10.27;4.00;;;8.50;99.90;;;;;;4980559;28;20187;-70
2023/10/05 03:49:02;;;;;;;12.70;3.77;;;8.50;99.90;;;;;;4994240;28;20223;-71
2023/10/05 03:51:31;;;;;;;10.00;3.50;;;8.50;99.90;;;;;;5002583;28;20238;-71
2023/10/05 03:53:56;;;;;;;9.63;3.57;;;8.50;99.90;;;;;;5011352;28;20204;-70
2023/10/05 03:56:23;;;;;;;9.20;3.97;;;8.50;99.90;;;;;;4995166;28;20664;-70
2023/10/05 03:58:52;;;;;;;8.90;4.03;;;8.50;99.90;;;;;;5005045;28;20204;-70
2023/10/05 04:01:18;;;;;;;9.80;3.53;;;8.50;99.90;;;;;;5000794;28;20686;-69
2023/10/05 04:03:46;;;;;;;9.07;3.30;;;8.50;99.90;;;;;;5003114;28;20384;-70
2023/10/05 04:06:18;;;;;;;10.03;3.47;;;8.50;99.90;;;;;;5010688;28;20187;-70
2023/10/05 04:08:54;;;;;;;9.73;4.10;;;8.50;99.90;;;;;;5004157;28;20239;-70
2023/10/05 04:11:21;;;;;;;6.63;3.20;;;8.60;99.90;;;;;;5011282;28;20192;-69
2023/10/05 04:13:49;;;;;;;8.20;3.60;;;8.60;99.90;;;;;;5004581;28;20201;-68
2023/10/05 04:16:22;;;;;;;10.60;3.97;;;8.60;99.90;;;;;;4983239;28;20376;-69
2023/10/05 04:18:51;;;;;;;14.67;3.83;;;8.60;99.90;;;;;;4999057;28;20216;-69
2023/10/05 04:21:23;;;;;;;8.90;3.60;;;8.60;99.90;;;;;;5006628;28;20564;-71
2023/10/05 04:23:52;;;;;;;10.70;3.40;;;8.60;99.90;;;;;;4989373;28;20212;-70
2023/10/05 04:26:21;;;;;;;8.73;3.80;;;8.60;99.90;;;;;;4993013;28;20182;-71
2023/10/05 04:28:57;;;;;;;19.17;6.67;;;8.60;99.90;;;;;;5010156;28;20218;-71
2023/10/05 04:31:25;;;;;;;8.93;3.87;;;8.60;99.90;;;;;;5011230;28;20176;-71
2023/10/05 04:33:52;;;;;;;9.03;4.23;;;8.60;99.90;;;;;;4991204;28;20213;-70
2023/10/05 04:36:24;;;;;;;7.67;3.77;;;8.60;99.90;;;;;;5006680;28;20188;-69
2023/10/05 04:38:54;;;;;;;17.60;4.17;;;8.60;99.90;;;;;;5004574;28;20193;-68
2023/10/05 04:41:31;;;;;;;10.13;4.50;;;8.60;99.90;;;;;;5008809;28;20179;-69
2023/10/05 04:43:58;;;;;;;9.83;4.40;;;8.60;99.90;;;;;;5010624;28;20196;-70
2023/10/05 04:46:24;;;;;;;14.17;4.10;;;8.50;99.90;;;;;;5010670;28;20263;-68
2023/10/05 04:48:56;;;;;;;13.83;4.90;;;8.60;99.90;;;;;;4993973;28;20187;-68
2023/10/05 04:51:30;;;;;;;19.23;5.27;;;8.50;99.90;;;;;;5002451;28;20181;-69
2023/10/05 04:53:59;;;;;;;20.37;10.37;;;8.60;99.90;;;;;;5002062;28;20199;-68
2023/10/05 04:56:53;;;;;;;19.60;9.50;;;8.50;99.90;;;;;;4986167;28;20180;-68
2023/10/05 05:07:07;;;;;;;12.00;5.00;;;8.50;99.90;;;;;;4987061;28;20687;-69
2023/10/05 05:09:39;;;;;;;12.50;5.13;;;8.50;99.90;;;;;;4984865;28;20447;-69
2023/10/05 05:12:16;;;;;;;10.60;4.53;;;8.40;99.90;;;;;;4986533;28;20203;-71
2023/10/05 05:14:42;;;;;;;10.70;4.23;;;8.40;99.90;;;;;;4988894;28;20188;-69
2023/10/05 05:17:12;;;;;;;10.87;4.17;;;8.40;99.90;;;;;;4985413;28;20196;-71
2023/10/05 05:19:41;;;;;;;10.90;3.70;;;8.40;99.90;;;;;;4995577;28;20303;-69
2023/10/05 05:22:08;;;;;;;10.00;4.33;;;8.40;99.90;;;;;;5012661;28;20560;-69
2023/10/05 05:24:35;;;;;;;9.00;3.80;;;8.40;99.90;;;;;;4980759;28;20849;-69
2023/10/05 05:27:10;;;;;;;9.03;3.33;;;8.30;99.90;;;;;;4988823;28;20632;-71
2023/10/05 05:29:36;;;;;;;9.30;3.67;;;8.30;99.90;;;;;;4980022;28;20703;-69
2023/10/05 05:32:19;;;;;;;15.50;4.17;;;8.30;99.90;;;;;;4989291;28;20212;-69
2023/10/05 05:34:44;;;;;;;10.30;3.90;;;8.30;99.90;;;;;;4988826;28;20217;-70
2023/10/05 05:37:13;;;;;;;9.87;3.23;;;8.30;99.90;;;;;;5004766;28;20660;-70
2023/10/05 05:39:39;;;;;;;9.10;3.17;;;8.30;99.90;;;;;;4988534;28;20220;-71
2023/10/05 05:42:15;;;;;;;8.90;3.67;;;8.30;99.90;;;;;;4989030;28;20196;-69
2023/10/05 05:44:41;;;;;;;8.23;3.67;;;8.30;99.90;;;;;;4988633;28;20204;-69
2023/10/05 05:47:10;;;;;;;10.00;3.87;;;8.30;99.90;;;;;;4987349;28;20580;-69
2023/10/05 05:49:40;;;;;;;7.53;3.70;;;8.40;99.90;;;;;;4986820;28;20217;-70
2023/10/05 05:52:08;;;;;;;8.93;3.73;;;8.40;99.90;;;;;;4988301;28;20277;-70
2023/10/05 05:54:37;;;;;;;18.13;4.97;;;8.40;99.90;;;;;;4997699;28;20205;-69
2023/10/05 05:57:07;;;;;;;14.77;3.83;;;8.40;99.90;;;;;;4999438;28;20181;-70
2023/10/05 05:59:38;;;;;;;10.77;3.80;;;8.40;99.90;;;;;;4992151;28;20208;-70
2023/10/05 06:02:06;;;;;;;13.87;3.63;;;8.40;99.90;;;;;;5001288;28;20231;-70
2023/10/05 06:04:35;;;;;;;10.80;3.80;;;8.50;99.90;;;;;;5004166;28;20219;-69
2023/10/05 06:07:08;;;;;;;12.20;4.30;;;8.60;99.90;;;;;;4997501;28;20644;-69
2023/10/05 06:09:33;;;;;;;9.60;3.77;;;8.70;99.90;;;;;;5004037;28;20188;-72
2023/10/05 06:12:03;;;;;;;9.67;3.97;;;8.80;99.90;;;;;;5012534;28;20187;-70
2023/10/05 06:14:31;;;;;;;11.43;3.83;;;8.90;99.90;;;;;;5004219;28;20201;-69
2023/10/05 06:16:57;;;;;;;13.80;5.37;;;9.00;99.90;;;;;;5012582;28;20426;-69
2023/10/05 06:19:23;;;;;;;8.70;4.47;;;9.00;99.90;;;;;;5008220;28;20299;-70
2023/10/05 06:21:48;;;;;;;10.40;4.13;;;9.10;99.90;;;;;;5006146;28;20180;-70
2023/10/05 06:24:14;;;;;;;8.87;4.13;;;9.20;99.90;;;;;;5011066;28;20196;-72
2023/10/05 06:26:40;;;;;;;13.03;4.50;;;9.30;99.90;;;;;;4996787;28;20208;-70
2023/10/05 06:29:08;;;;;;;13.17;4.83;;;9.40;99.90;;;;;;4996146;28;20190;-69
2023/10/05 06:31:35;;;;;;;10.97;4.30;;;9.40;99.90;;;;;;4996104;28;20176;-70
2023/10/05 06:34:01;;;;;;;11.77;4.43;;;9.50;99.90;;;;;;5012092;28;20243;-69
2023/10/05 06:36:26;;;;;;;11.30;4.03;;;9.60;99.90;;;;;;5003808;28;20216;-70
2023/10/05 06:38:52;;;;;;;12.87;4.60;;;9.70;99.90;;;;;;5003383;28;20215;-70
2023/10/05 06:41:22;;;;;;;12.87;4.80;;;9.80;99.90;;;;;;5002483;28;20438;-70
2023/10/05 06:43:49;;;;;;;12.07;4.67;;;9.90;99.90;;;;;;4989276;28;20234;-68
2023/10/05 06:46:17;;;;;;;10.13;4.63;;;10.00;99.90;;;;;;5002944;28;20173;-69
2023/10/05 06:48:44;;;;;;;16.97;5.63;;;10.00;99.90;;;;;;4995106;28;20253;-68
2023/10/05 06:51:11;;;;;;;14.40;5.40;;;10.20;99.90;;;;;;4995546;28;20191;-69
2023/10/05 06:53:37;;;;;;;14.70;5.23;;;10.20;99.90;;;;;;5002554;28;20615;-69
2023/10/05 06:56:03;;;;;;;16.10;5.00;;;10.30;99.90;;;;;;5004165;28;20218;-69
2023/10/05 06:58:29;;;;;;;11.73;4.40;;;10.30;99.90;;;;;;5009786;28;20547;-68
2023/10/05 07:00:54;;;;;;;14.43;4.97;;;10.50;99.90;;;;;;5018695;28;20193;-68
2023/10/05 07:03:20;;;;;;;13.60;5.37;;;10.60;99.90;;;;;;4998794;28;20224;-71
2023/10/05 07:05:47;;;;;;;10.90;5.23;;;10.80;99.90;;;;;;4993809;28;20181;-69
2023/10/05 07:08:14;;;;;;;14.07;6.03;;;10.90;99.90;;;;;;5008178;28;20184;-71
2023/10/05 07:10:40;;;;;;;17.07;6.97;;;11.10;99.90;;;;;;5003741;28;20774;-71
2023/10/05 07:13:08;;;;;;;14.40;6.07;;;11.20;99.90;;;;;;5011400;28;20228;-71
2023/10/05 07:15:35;;;;;;;13.00;5.90;;;11.40;99.90;;;;;;4996483;28;20182;-71
2023/10/05 07:18:01;;;;;;;16.73;6.33;;;11.50;99.90;;;;;;4995174;28;20208;-70
2023/10/05 07:20:27;;;;;;;16.10;6.10;;;11.70;99.90;;;;;;4999246;28;20192;-70
2023/10/05 07:22:53;;;;;;;17.77;5.37;;;11.80;99.90;;;;;;4999784;28;20387;-70
2023/10/05 07:25:18;;;;;;;10.33;5.10;;;12.00;99.90;;;;;;5007821;28;20384;-70
2023/10/05 07:27:45;;;;;;;15.13;5.60;;;12.10;99.90;;;;;;4996219;28;20177;-70
2023/10/05 07:30:11;;;;;;;15.80;5.23;;;12.20;99.90;;;;;;5010315;28;20185;-70
2023/10/05 07:32:37;;;;;;;15.43;5.53;;;12.40;99.90;;;;;;5010961;28;20177;-70
2023/10/05 07:35:07;;;;;;;15.20;6.30;;;12.60;99.90;;;;;;4995006;28;20180;-70
2023/10/05 07:37:34;;;;;;;24.80;9.43;;;12.70;99.90;;;;;;4994327;28;20220;-71
2023/10/05 07:39:59;;;;;;;20.97;7.40;;;12.90;99.90;;;;;;5003687;28;20212;-70
2023/10/05 07:42:27;;;;;;;21.17;7.47;;;13.20;99.90;;;;;;5009260;28;20184;-70
2023/10/05 07:44:53;;;;;;;14.57;5.90;;;13.30;99.90;;;;;;5004961;28;20180;-70
2023/10/05 07:47:19;;;;;;;12.07;4.67;;;13.40;99.90;;;;;;5023545;28;20181;-70
2023/10/05 07:49:45;;;;;;;16.93;4.30;;;13.50;99.90;;;;;;4997198;28;20177;-70
2023/10/05 07:52:11;;;;;;;13.33;4.53;;;13.60;99.90;;;;;;5007120;28;20199;-69
2023/10/05 07:54:38;;;;;;;18.27;6.80;;;13.70;99.90;;;;;;4999003;28;20622;-70
2023/10/05 07:57:11;;;;;;;17.67;6.70;;;13.60;99.90;;;;;;4998741;28;20223;-70
2023/10/05 07:59:41;;;;;;;12.67;4.70;;;13.60;99.90;;;;;;4987206;28;20206;-70
2023/10/05 08:02:07;;;;;;;17.77;5.50;;;13.80;99.90;;;;;;4986559;28;20193;-70
2023/10/05 08:04:33;;;;;;;15.83;5.30;;;13.80;99.90;;;;;;5001113;28;20208;-70
2023/10/05 08:06:59;;;;;;;16.87;5.23;;;13.70;99.90;;;;;;4994231;28;20272;-71
2023/10/05 08:09:27;;;;;;;11.67;4.87;;;13.90;99.90;;;;;;5000219;28;20645;-71
2023/10/05 08:11:53;;;;;;;21.70;5.77;;;13.80;99.90;;;;;;5019405;28;20193;-71
2023/10/05 08:14:20;;;;;;;14.33;5.07;;;13.90;99.90;;;;;;4998975;28;20570;-71
2023/10/05 08:16:46;;;;;;;15.60;4.93;;;14.20;99.90;;;;;;4992164;28;20180;-69
2023/10/05 08:19:12;;;;;;;11.73;4.23;;;14.50;99.90;;;;;;5000350;28;20204;-69
2023/10/05 08:21:38;;;;;;;11.47;3.70;;;14.70;99.90;;;;;;5010196;28;20395;-68
2023/10/05 08:24:04;;;;;;;13.17;3.50;;;14.80;99.90;;;;;;5002546;28;20201;-69
2023/10/05 08:26:30;;;;;;;10.87;2.73;;;15.00;99.90;;;;;;4976130;28;20272;-68
2023/10/05 08:28:56;;;;;;;9.23;2.50;;;15.10;99.90;;;;;;5002877;28;20193;-69
2023/10/05 08:31:25;;;;;;;10.30;2.20;;;15.20;99.90;;;;;;5006384;28;20497;-69
2023/10/05 08:33:54;;;;;;;10.30;2.10;;;15.30;99.90;;;;;;5003178;28;20209;-68
2023/10/05 08:36:20;;;;;;;11.53;2.20;;;15.30;99.90;;;;;;4990637;28;20546;-69
2023/10/05 08:38:48;;;;;;;8.50;2.37;;;15.20;99.90;;;;;;4996523;28;20775;-69
2023/10/05 08:41:41;;;;;;;11.30;1.93;;;15.20;99.90;;;;;;4997033;28;20168;-68
2023/10/05 08:44:15;;;;;;;12.57;1.90;;;15.00;99.90;;;;;;4997398;28;20216;-67
2023/10/05 08:46:42;;;;;;;10.70;1.80;;;15.10;99.90;;;;;;4986945;28;20164;-67
2023/10/05 08:49:10;;;;;;;13.67;2.67;;;15.30;99.90;;;;;;5009243;28;20674;-68
2023/10/05 08:51:39;;;;;;;6.23;2.10;;;15.30;99.90;;;;;;4993218;28;20187;-69
2023/10/05 08:54:09;;;;;;;18.30;2.93;;;15.10;99.90;;;;;;5009624;28;20263;-68
2023/10/05 08:56:37;;;;;;;7.70;2.10;;;15.20;99.90;;;;;;4998568;28;20181;-68
2023/10/05 08:59:07;;;;;;;7.90;2.13;;;15.20;99.90;;;;;;4988150;28;20295;-68
2023/10/05 09:01:33;;;;;;;10.83;2.47;;;15.30;99.90;;;;;;5009100;28;20176;-67
2023/10/05 09:04:11;;;;;;;6.87;1.87;;;15.50;99.90;;;;;;4994764;28;20628;-67
2023/10/05 09:06:55;;;;;;;11.90;2.07;;;15.70;99.90;;;;;;4986767;28;20624;-67
2023/10/05 09:09:52;;;;;;;11.67;2.23;;;15.90;99.90;;;;;;4995440;28;20694;-68
2023/10/05 09:17:58;;;;;;;7.77;1.93;;;16.20;99.90;;;;;;4990431;28;20545;-67
2023/10/05 09:20:30;;;;;;;8.43;2.33;;;16.10;99.90;;;;;;5005964;28;20199;-68
2023/10/05 09:22:57;;;;;;;8.20;2.00;;;16.10;99.90;;;;;;5000357;28;20705;-68
2023/10/05 09:25:28;;;;;;;8.03;1.80;;;16.20;99.90;;;;;;4984995;28;20181;-68
2023/10/05 09:27:55;;;;;;;10.27;2.13;;;16.20;99.90;;;;;;5003333;28;20652;-68
2023/10/05 09:30:22;;;;;;;10.57;2.20;;;16.40;99.90;;;;;;4997183;28;20359;-67
2023/10/05 09:32:48;;;;;;;8.27;1.80;;;16.60;99.90;;;;;;4994524;28;20200;-68
2023/10/05 09:35:44;;;;;;;8.60;2.17;;;16.80;99.90;;;;;;5000960;28;20189;-68
2023/10/05 09:38:13;;;;;;;4.03;1.63;;;17.10;99.90;;;;;;5000749;28;20212;-68
2023/10/05 09:40:39;;;;;;;12.77;2.33;;;17.10;99.90;;;;;;4991942;28;20550;-67
2023/10/05 09:43:06;;;;;;;10.93;2.67;;;17.10;99.90;;;;;;4986494;28;20206;-68
2023/10/05 09:45:33;;;;;;;12.60;2.63;;;17.10;99.90;;;;;;5014603;28;20197;-68
2023/10/05 09:48:01;;;;;;;14.33;2.73;;;16.90;99.90;;;;;;5000917;28;20181;-68
2023/10/05 09:50:30;;;;;;;8.10;2.20;;;16.80;99.90;;;;;;4999307;28;20291;-67
2023/10/05 09:53:02;;;;;;;8.33;2.00;;;16.50;99.90;;;;;;5009232;28;20599;-67
2023/10/05 09:55:30;;;;;;;6.70;2.00;;;16.50;99.90;;;;;;5000785;28;20212;-68
2023/10/05 09:58:12;;;;;;;10.47;2.53;;;16.30;99.90;;;;;;5003729;28;20201;-68
2023/10/05 10:03:05;;;;;;;10.23;2.10;;;16.00;99.90;;;;;;4989089;28;20593;-67
2023/10/05 10:05:59;;;;;;;17.13;2.70;;;16.00;99.90;;;;;;4995704;28;20550;-67
2023/10/05 10:08:27;;;;;;;10.93;2.40;;;16.00;99.90;;;;;;5008662;28;20180;-67
2023/10/05 10:11:02;;;;;;;8.03;2.27;;;16.10;99.90;;;;;;4985351;28;20409;-68
2023/10/05 10:13:41;;;;;;;8.00;2.30;;;16.20;99.90;;;;;;4985541;28;20569;-67
2023/10/05 10:16:21;;;;;;;6.80;2.17;;;16.50;99.90;;;;;;4987642;28;20765;-69
2023/10/05 10:19:19;;;;;;;5.97;2.00;;;16.70;99.90;;;;;;4977692;28;20197;-68
2023/10/05 10:21:48;;;;;;;5.20;2.10;;;16.90;99.90;;;;;;4996589;28;20256;-67
2023/10/05 10:24:17;;;;;;;10.33;2.33;;;17.00;99.90;;;;;;4998038;28;20204;-67
2023/10/05 10:26:44;;;;;;;6.60;2.40;;;17.00;99.90;;;;;;5000143;28;20176;-67
2023/10/05 10:29:13;;;;;;;7.80;2.00;;;16.90;99.90;;;;;;4998304;28;20234;-68
2023/10/05 10:31:42;;;;;;;7.03;2.20;;;16.90;99.90;;;;;;4985067;28;20205;-69
2023/10/05 10:34:18;;;;;;;10.53;2.07;;;16.90;99.90;;;;;;5000027;28;20252;-69
2023/10/05 10:36:53;;;;;;;11.87;1.80;;;16.80;99.90;;;;;;5011937;28;20187;-68
2023/10/05 10:39:29;;;;;;;5.37;2.10;;;16.70;99.90;;;;;;5003272;28;20294;-70
2023/10/05 10:42:06;;;;;;;5.77;1.77;;;16.70;99.90;;;;;;5012099;28;20176;-70
2023/10/05 10:47:22;;;;;;;10.93;2.20;;;16.70;99.90;;;;;;5011282;28;20367;-70
2023/10/05 10:52:36;;;;;;;8.10;1.90;;;17.00;99.90;;;;;;5011731;28;20184;-69
2023/10/05 10:55:03;;;;;;;10.40;1.93;;;17.10;99.90;;;;;;5003550;28;20184;-69
2023/10/05 10:57:29;;;;;;;9.33;2.10;;;17.10;99.90;;;;;;5003455;28;20181;-68
2023/10/05 11:02:44;;;;;;;7.47;2.33;;;16.70;99.90;;;;;;4993785;28;20391;-69
2023/10/05 11:05:15;;;;;;;7.67;2.00;;;16.60;99.90;;;;;;5011672;28;20208;-68
2023/10/05 11:07:44;;;;;;;10.33;2.20;;;16.50;99.90;;;;;;4996419;28;20291;-69
2023/10/05 11:10:19;;;;;;;6.70;1.77;;;16.40;99.90;;;;;;4993713;28;20188;-69
2023/10/05 11:12:56;;;;;;;9.43;1.97;;;16.50;99.90;;;;;;4997049;28;20569;-69
2023/10/05 11:15:30;;;;;;;9.33;2.00;;;16.70;99.90;;;;;;5011055;28;20196;-69
2023/10/05 11:18:00;;;;;;;8.10;2.50;;;16.80;99.90;;;;;;5003125;28;20675;-68
2023/10/05 11:20:28;;;;;;;5.27;1.80;;;16.90;99.90;;;;;;5015622;28;20565;-67
2023/10/05 11:23:01;;;;;;;5.53;2.07;;;17.00;99.90;;;;;;4995991;28;20200;-69
2023/10/05 11:25:35;;;;;;;9.10;2.07;;;17.10;99.90;;;;;;4985738;28;20182;-69
2023/10/05 11:28:07;;;;;;;7.33;1.90;;;17.30;99.90;;;;;;5010469;28;20215;-67
2023/10/05 11:30:45;;;;;;;7.07;2.13;;;17.30;99.90;;;;;;4991845;28;20271;-70
2023/10/05 11:33:17;;;;;;;7.97;2.73;;;17.10;99.90;;;;;;4999609;28;20197;-70
2023/10/05 11:35:51;;;;;;;7.50;2.30;;;17.00;99.90;;;;;;4996517;28;20592;-69
2023/10/05 11:38:19;;;;;;;12.77;3.10;;;16.90;99.90;;;;;;5002544;28;20326;-69
2023/10/05 11:40:49;;;;;;;8.87;1.53;;;17.00;99.90;;;;;;5002230;28;20179;-71
2023/10/05 11:43:18;;;;;;;5.93;1.70;;;17.10;99.90;;;;;;5009661;28;20200;-68
2023/10/05 11:46:00;;;;;;;5.87;1.63;;;17.20;99.90;;;;;;4998850;28;20177;-67
2023/10/05 11:48:42;;;;;;;8.67;1.70;;;17.20;99.90;;;;;;5006962;28;20673;-66
2023/10/05 11:51:13;;;;;;;9.60;1.87;;;17.20;99.90;;;;;;5006770;28;20268;-68
2023/10/05 11:53:39;;;;;;;6.60;1.60;;;17.20;99.90;;;;;;5003748;28;20208;-69
2023/10/05 11:56:06;;;;;;;5.13;1.47;;;17.00;99.90;;;;;;5001860;28;20181;-69
2023/10/05 11:58:41;;;;;;;6.60;1.40;;;17.20;99.90;;;;;;5000067;28;20235;-68
2023/10/05 12:01:07;;;;;;;8.53;1.70;;;17.10;99.90;;;;;;5010707;28;20255;-69
2023/10/05 12:03:33;;;;;;;7.27;1.60;;;17.10;99.90;;;;;;4999392;28;20308;-70
2023/10/05 12:06:00;;;;;;;11.00;1.70;;;17.00;99.90;;;;;;5005081;28;20204;-68
2023/10/05 12:08:28;;;;;;;6.77;1.60;;;17.10;99.90;;;;;;5002244;28;20177;-70
2023/10/05 12:10:59;;;;;;;16.37;3.90;;;17.20;99.90;;;;;;4996683;28;20192;-71
2023/10/05 12:13:25;;;;;;;7.10;1.70;;;17.20;99.90;;;;;;4988879;28;20204;-71
2023/10/05 12:15:51;;;;;;;8.03;1.70;;;17.30;99.90;;;;;;4987007;28;20186;-71
2023/10/05 12:18:17;;;;;;;5.07;1.73;;;17.30;99.90;;;;;;5003878;28;20552;-72
2023/10/05 12:20:42;;;;;;;6.17;1.60;;;17.20;99.90;;;;;;5024477;28;20191;-69
2023/10/05 12:23:14;;;;;;;7.20;1.50;;;17.30;99.90;;;;;;5010149;28;20247;-72
2023/10/05 12:25:44;;;;;;;10.33;1.53;;;17.40;99.90;;;;;;4994486;28;20260;-69
2023/10/05 12:28:11;;;;;;;8.83;1.73;;;17.50;99.90;;;;;;4985425;28;20220;-71
2023/10/05 12:30:39;;;;;;;4.83;1.40;;;17.40;99.90;;;;;;5006085;28;20185;-70
2023/10/05 12:33:06;;;;;;;4.83;1.70;;;17.50;99.90;;;;;;4975386;28;20197;-71
2023/10/05 12:35:32;;;;;;;8.13;1.80;;;17.60;99.90;;;;;;4989444;28;20715;-70
2023/10/05 12:37:58;;;;;;;4.17;1.27;;;17.60;99.90;;;;;;5004634;28;20208;-71
2023/10/05 12:40:33;;;;;;;5.03;1.57;;;17.60;99.90;;;;;;4998345;28;20187;-70
2023/10/05 12:42:59;;;;;;;7.57;1.63;;;17.60;99.90;;;;;;4999212;28;20296;-71
2023/10/05 12:45:25;;;;;;;5.67;1.57;;;17.80;99.90;;;;;;5001607;28;20497;-71
2023/10/05 12:47:55;;;;;;;7.37;2.23;;;17.90;99.90;;;;;;4988666;28;20181;-70
2023/10/05 12:50:22;;;;;;;5.03;1.53;;;17.90;99.90;;;;;;5006956;28;20173;-71
2023/10/05 12:52:51;;;;;;;6.20;1.50;;;17.90;99.90;;;;;;5001724;28;20291;-70
2023/10/05 12:55:26;;;;;;;8.83;1.77;;;18.10;99.90;;;;;;5008836;28;20184;-71
2023/10/05 12:57:52;;;;;;;6.10;1.33;;;18.10;99.90;;;;;;4991792;28;20205;-70
2023/10/05 13:00:27;;;;;;;4.37;1.43;;;18.40;99.90;;;;;;4998017;28;20660;-70
2023/10/05 13:02:54;;;;;;;6.13;1.30;;;18.60;99.90;;;;;;4996040;28;20212;-72
2023/10/05 13:05:21;;;;;;;9.10;1.80;;;18.70;99.90;;;;;;4998851;28;20675;-70
2023/10/05 13:07:48;;;;;;;7.00;1.77;;;18.70;99.90;;;;;;5009603;28;20192;-70
2023/10/05 13:10:21;;;;;;;6.77;2.40;;;18.90;99.90;;;;;;4992609;28;20231;-69
2023/10/05 13:12:51;;;;;;;7.37;2.07;;;19.20;99.90;;;;;;5009375;28;20196;-70
2023/10/05 13:15:19;;;;;;;3.43;1.50;;;19.30;99.90;;;;;;5007775;28;20189;-71
2023/10/05 13:17:46;;;;;;;6.80;1.73;;;19.30;99.90;;;;;;4981785;28;20217;-71
2023/10/05 13:20:15;;;;;;;8.33;1.70;;;19.20;99.90;;;;;;5005186;28;20176;-70
2023/10/05 13:22:44;;;;;;;5.53;1.53;;;19.10;99.90;;;;;;4990196;28;20205;-68
2023/10/05 13:25:13;;;;;;;6.13;1.70;;;18.70;99.90;;;;;;4997276;28;20258;-70
2023/10/05 13:27:39;;;;;;;4.90;1.50;;;18.30;99.90;;;;;;4980192;28;20203;-69
2023/10/05 13:30:05;;;;;;;10.27;1.70;;;18.10;99.90;;;;;;4997825;28;20185;-69
2023/10/05 13:32:31;;;;;;;2.80;1.40;;;17.90;99.90;;;;;;4999908;28;20196;-71
2023/10/05 13:34:57;;;;;;;18.40;2.10;;;17.80;99.90;;;;;;5013457;28;20710;-67
2023/10/05 13:37:23;;;;;;;8.33;1.83;;;17.70;99.90;;;;;;5004991;28;20193;-68